Airfield :
LOGIN :

Register | Disclaimer

   EN    FR    IT 

 










Legend :    VFR   Marginal VFR   IFR   Intensive IFR   Very Intensive IFR
Visi :
Ceiling :
>= 8 km
>= 3000ft
5 to 8 km
1000 to 3000 ft
1500m to 5 km
500 to 1000 ft
800 to 1500m
200 to 500 ft
< 800m
< 200 ft
Symbols :   Thunderstorms  Fog  Heavy snow  Heavy precipitations  Wind > 20 kt
SIGMETs :     Misc.  Thunderstorms  Icing  Turbulence  Mountain Waves  Volcanic Ashes






- Airport Elevation : 16 ft
- IATA code : SDL


ESNN - Sundsvall-Härnösand

CURRENT METAR :
  • 071320Z AUTO 31017G28KT 270V330 9999 FEW044/// BKN120/// 10/02 Q1018

EXPIRED METARs :
  • 071250Z AUTO 30010KT 9999 OVC100/// 09/04 Q1017
  • 071220Z AUTO 31009KT 260V340 9999 BKN090/// OVC110/// 09/04 Q1017
  • 071150Z AUTO 31007KT 9999 OVC092/// 08/05 Q1017
  • 071120Z 30005KT 240V330 CAVOK 07/06 Q1016

Expired Forecast.



MET'MAP, your aeronautical weather chart ! - Copyright ORBIFLY December 2007 - Disclaimer

ORBIFLY MET'MAP TEAM :

Programming & Development : Alexandra Zaïnal
Concept & original design : Baudouin d'Aumeries
Assistance for programming : Marc-Olivier Méhu
Technical & hardware support : Manuel Goepfert

Contact : metmap@orbifly.com




SOURCES & CREDITS :

   NOAA